Time;durP1;ratioP1;P1;durP2;ratioP2;P2;SDS_P1;SDS_P2;PMS_P1;PMS_P2;Temp;Humidity;BMP_temperature;BMP_pressure;BME280_temperature;BME280_humidity;BME280_pressure;Samples;Min_cycle;Max_cycle;Signal;HPM_P1;HPM_P2
2021/04/23 00:00:11;;;;;;;1.30;1.20;;;23.10;29.90;;;;;;5014656;28;20227;-63
2021/04/23 00:02:37;;;;;;;1.98;1.50;;;23.10;30.00;;;;;;5029597;28;20272;-63
2021/04/23 00:05:03;;;;;;;1.30;1.20;;;23.10;30.00;;;;;;5030073;28;20202;-62
2021/04/23 00:07:29;;;;;;;1.87;1.50;;;23.10;30.00;;;;;;5029900;28;20240;-63
2021/04/23 00:09:55;;;;;;;1.20;1.10;;;23.10;30.00;;;;;;5030324;28;20312;-62
2021/04/23 00:12:21;;;;;;;1.30;1.20;;;23.10;30.00;;;;;;5030440;28;20302;-63
2021/04/23 00:14:47;;;;;;;1.30;1.20;;;23.10;30.00;;;;;;5029315;28;20624;-63
2021/04/23 00:17:12;;;;;;;2.38;1.40;;;23.10;30.10;;;;;;5030105;28;20198;-63
2021/04/23 00:19:38;;;;;;;1.88;1.20;;;23.10;30.20;;;;;;5029611;28;20265;-62
2021/04/23 00:22:04;;;;;;;1.30;1.20;;;23.10;30.10;;;;;;5030340;28;20316;-63
2021/04/23 00:24:30;;;;;;;1.80;1.53;;;23.10;30.20;;;;;;5029919;28;20817;-63
2021/04/23 00:26:56;;;;;;;1.30;1.20;;;23.00;30.00;;;;;;5030345;28;20217;-63
2021/04/23 00:29:22;;;;;;;1.80;1.50;;;23.00;30.10;;;;;;5029155;28;20203;-63
2021/04/23 00:31:48;;;;;;;1.40;1.20;;;23.10;30.20;;;;;;5030143;28;20198;-63
2021/04/23 00:34:14;;;;;;;1.80;1.30;;;23.10;30.20;;;;;;5029579;28;20222;-62
2021/04/23 00:36:40;;;;;;;1.52;1.20;;;23.10;30.30;;;;;;5029686;28;20618;-63
2021/04/23 00:39:06;;;;;;;2.73;1.30;;;23.10;30.20;;;;;;5029231;28;20222;-63
2021/04/23 00:41:32;;;;;;;1.90;1.35;;;23.00;30.20;;;;;;5029380;28;20659;-63
2021/04/23 00:43:58;;;;;;;2.00;1.13;;;23.10;30.30;;;;;;5029658;28;20222;-63
2021/04/23 00:46:24;;;;;;;1.40;1.23;;;23.10;30.10;;;;;;5028803;28;20202;-63
2021/04/23 00:48:50;;;;;;;1.30;1.20;;;23.00;30.10;;;;;;5028974;28;20195;-63
2021/04/23 00:51:16;;;;;;;1.20;1.10;;;23.10;30.20;;;;;;5030687;28;20213;-63
2021/04/23 00:53:42;;;;;;;1.45;1.35;;;23.10;30.10;;;;;;5029098;28;20289;-63
2021/04/23 00:56:08;;;;;;;1.58;1.17;;;23.10;30.10;;;;;;5031314;28;20206;-63
2021/04/23 00:58:34;;;;;;;2.13;1.45;;;23.10;30.20;;;;;;5034309;28;20230;-63
2021/04/23 01:01:00;;;;;;;1.65;1.25;;;23.10;30.10;;;;;;5034189;28;20208;-63
2021/04/23 01:03:26;;;;;;;1.55;1.25;;;23.00;30.10;;;;;;5036810;28;20714;-62
2021/04/23 01:05:52;;;;;;;2.13;1.50;;;23.00;30.10;;;;;;5035821;28;20195;-63
2021/04/23 01:08:18;;;;;;;1.30;1.20;;;23.10;30.20;;;;;;5036185;28;20232;-63
2021/04/23 01:10:44;;;;;;;1.30;1.20;;;23.10;30.20;;;;;;5035293;28;20194;-63
2021/04/23 01:13:10;;;;;;;1.08;1.05;;;23.10;30.20;;;;;;5037188;28;20222;-63
2021/04/23 01:15:36;;;;;;;1.40;1.30;;;23.00;30.10;;;;;;5035529;28;20217;-63
2021/04/23 01:18:02;;;;;;;3.10;1.20;;;23.10;30.20;;;;;;5035282;28;20206;-62
2021/04/23 01:20:28;;;;;;;1.30;1.20;;;23.10;30.20;;;;;;5034782;28;20308;-62
2021/04/23 01:22:54;;;;;;;1.50;1.25;;;23.10;30.30;;;;;;5036607;28;20222;-63
2021/04/23 01:25:20;;;;;;;1.60;1.20;;;23.10;30.30;;;;;;5034790;28;20205;-63
2021/04/23 01:27:46;;;;;;;1.40;1.30;;;23.10;30.30;;;;;;5034910;28;20209;-63
2021/04/23 01:30:12;;;;;;;2.00;1.50;;;23.10;30.60;;;;;;5035156;28;20206;-63
2021/04/23 01:32:38;;;;;;;2.00;1.38;;;23.10;30.60;;;;;;5036256;28;20520;-63
2021/04/23 01:35:04;;;;;;;1.55;1.20;;;23.10;30.70;;;;;;5035766;28;20198;-63
2021/04/23 01:37:30;;;;;;;1.23;1.13;;;23.10;30.70;;;;;;5035945;28;20681;-63
2021/04/23 01:39:56;;;;;;;2.13;1.40;;;23.00;30.70;;;;;;5034938;28;20230;-63
2021/04/23 01:42:22;;;;;;;1.50;1.40;;;23.00;30.60;;;;;;5035422;28;20218;-63
2021/04/23 01:44:48;;;;;;;1.42;1.33;;;23.00;30.70;;;;;;5035394;28;20670;-63
2021/04/23 01:47:14;;;;;;;1.40;1.27;;;23.00;30.60;;;;;;5032217;28;20221;-63
2021/04/23 01:49:40;;;;;;;3.07;1.53;;;23.00;30.80;;;;;;5035700;28;20213;-63
2021/04/23 01:52:06;;;;;;;1.53;1.20;;;23.00;30.80;;;;;;5035062;28;20209;-63
2021/04/23 01:54:32;;;;;;;1.27;1.17;;;23.00;30.80;;;;;;5036223;28;20202;-63
2021/04/23 01:56:58;;;;;;;1.80;1.30;;;23.00;30.80;;;;;;5034366;28;20206;-63
2021/04/23 01:59:24;;;;;;;1.33;1.23;;;23.00;30.80;;;;;;5034639;28;20262;-63
2021/04/23 02:01:50;;;;;;;1.73;1.63;;;23.00;30.70;;;;;;5032292;28;20644;-63
2021/04/23 02:04:16;;;;;;;1.30;1.20;;;23.00;30.60;;;;;;5034836;28;20226;-63
2021/04/23 02:06:42;;;;;;;1.60;1.17;;;23.10;30.70;;;;;;5034700;28;20203;-63
2021/04/23 02:09:08;;;;;;;2.08;1.40;;;23.10;30.70;;;;;;5032304;28;20206;-63
2021/04/23 02:11:34;;;;;;;1.40;1.30;;;23.00;30.60;;;;;;5031615;28;20209;-64
2021/04/23 02:14:01;;;;;;;2.60;1.42;;;23.10;30.60;;;;;;5033139;28;20222;-63
2021/04/23 02:16:27;;;;;;;2.00;1.23;;;23.10;30.60;;;;;;5031376;28;20210;-63
2021/04/23 02:18:53;;;;;;;2.33;1.33;;;23.10;30.70;;;;;;5032472;28;20592;-63
2021/04/23 02:21:19;;;;;;;2.00;1.27;;;23.00;30.50;;;;;;5031727;28;20210;-63
2021/04/23 02:23:45;;;;;;;1.30;1.20;;;23.10;30.60;;;;;;5032693;28;20226;-64
2021/04/23 02:26:11;;;;;;;1.40;1.30;;;23.10;30.60;;;;;;5031440;28;20214;-65
2021/04/23 02:28:37;;;;;;;1.30;1.20;;;23.00;30.50;;;;;;5032349;28;20207;-64
2021/04/23 02:31:03;;;;;;;1.30;1.20;;;23.10;30.70;;;;;;5031275;28;20659;-62
2021/04/23 02:33:29;;;;;;;2.00;1.50;;;23.10;30.60;;;;;;5031817;28;20272;-63
2021/04/23 02:35:55;;;;;;;2.85;1.13;;;23.10;30.60;;;;;;5031630;28;20203;-63
2021/04/23 02:38:21;;;;;;;1.25;1.15;;;23.10;30.70;;;;;;5031920;28;20287;-64
2021/04/23 02:40:47;;;;;;;1.33;1.20;;;23.00;30.60;;;;;;5030026;28;20194;-63
2021/04/23 02:43:13;;;;;;;1.20;1.10;;;23.00;30.60;;;;;;5032337;28;20222;-64
2021/04/23 02:45:39;;;;;;;1.63;1.30;;;23.10;30.70;;;;;;5031021;28;20663;-63
2021/04/23 02:48:05;;;;;;;2.17;1.30;;;23.10;30.70;;;;;;5030361;28;20214;-63
2021/04/23 02:50:31;;;;;;;1.85;1.20;;;23.00;30.70;;;;;;5029386;28;20206;-63
2021/04/23 02:52:57;;;;;;;1.20;1.10;;;23.00;31.00;;;;;;5032234;28;20223;-63
2021/04/23 02:55:23;;;;;;;1.33;1.23;;;23.00;31.00;;;;;;5031014;28;20570;-63
2021/04/23 02:57:49;;;;;;;1.50;1.40;;;23.00;31.20;;;;;;5031386;28;20206;-63
2021/04/23 03:00:15;;;;;;;1.03;1.03;;;23.00;31.10;;;;;;5028435;28;20716;-62
2021/04/23 03:02:41;;;;;;;1.65;1.30;;;23.00;31.10;;;;;;5030993;28;20296;-62
2021/04/23 03:05:07;;;;;;;1.83;1.35;;;23.00;31.20;;;;;;5030017;28;20218;-63
2021/04/23 03:07:34;;;;;;;1.70;1.52;;;23.00;31.30;;;;;;5031534;28;20217;-63
2021/04/23 03:10:00;;;;;;;1.23;1.13;;;23.00;31.30;;;;;;5030455;28;20257;-63
2021/04/23 03:12:26;;;;;;;1.57;1.20;;;23.00;31.40;;;;;;5030390;28;20226;-63
2021/04/23 03:14:52;;;;;;;1.55;1.45;;;23.00;31.40;;;;;;5029683;28;20207;-62
2021/04/23 03:17:18;;;;;;;2.80;1.63;;;23.00;31.30;;;;;;5031450;28;20202;-63
2021/04/23 03:19:44;;;;;;;1.33;1.20;;;23.00;31.40;;;;;;5029390;28;20235;-65
2021/04/23 03:22:10;;;;;;;1.20;1.10;;;23.00;31.40;;;;;;5031678;28;20658;-63
2021/04/23 03:24:36;;;;;;;1.20;1.10;;;23.00;31.20;;;;;;5030966;28;20205;-65
2021/04/23 03:27:03;;;;;;;1.23;1.13;;;23.00;31.20;;;;;;5031101;28;20257;-63
2021/04/23 03:29:29;;;;;;;1.55;1.23;;;23.00;31.20;;;;;;5031207;28;20984;-62
2021/04/23 03:31:55;;;;;;;1.40;1.30;;;23.00;31.00;;;;;;5030146;28;20277;-63
2021/04/23 03:34:21;;;;;;;1.30;1.20;;;23.00;31.10;;;;;;5031979;28;20234;-63
2021/04/23 03:36:47;;;;;;;2.72;1.30;;;23.00;31.10;;;;;;5029767;28;20496;-60
2021/04/23 03:39:13;;;;;;;1.50;1.40;;;23.00;31.10;;;;;;5031303;28;20223;-63
2021/04/23 03:41:40;;;;;;;1.50;1.40;;;23.00;31.50;;;;;;5029750;28;20634;-63
2021/04/23 03:44:06;;;;;;;2.30;1.30;;;23.00;31.50;;;;;;5031427;28;20194;-65
2021/04/23 03:46:32;;;;;;;2.13;1.20;;;23.00;31.30;;;;;;5029758;28;20732;-65
2021/04/23 03:48:58;;;;;;;1.30;1.20;;;23.00;31.10;;;;;;5031420;28;20211;-65
2021/04/23 03:51:24;;;;;;;1.20;1.10;;;23.00;30.90;;;;;;5030148;28;20214;-65
2021/04/23 03:53:50;;;;;;;1.20;1.10;;;23.10;31.00;;;;;;5030695;28;20560;-63
2021/04/23 03:56:16;;;;;;;1.30;1.20;;;23.10;30.90;;;;;;5030231;28;20207;-64
2021/04/23 03:58:42;;;;;;;1.40;1.30;;;23.00;30.90;;;;;;5030669;28;20197;-64
2021/04/23 04:01:08;;;;;;;1.45;1.35;;;23.00;31.00;;;;;;5027982;28;20578;-64
2021/04/23 04:03:36;;;;;;;1.20;1.10;;;23.10;31.20;;;;;;5016111;28;20237;-66
2021/04/23 04:06:02;;;;;;;1.30;1.20;;;23.00;31.10;;;;;;5030107;28;20220;-65
2021/04/23 04:08:28;;;;;;;1.85;1.20;;;23.00;31.20;;;;;;5030159;28;20199;-65
2021/04/23 04:10:54;;;;;;;1.23;1.13;;;23.10;31.20;;;;;;5029418;28;20665;-65
2021/04/23 04:13:20;;;;;;;1.63;1.30;;;23.00;31.30;;;;;;5030908;28;20215;-64
2021/04/23 04:15:46;;;;;;;2.37;1.60;;;23.00;31.20;;;;;;5029680;28;20202;-63
2021/04/23 04:18:12;;;;;;;1.83;1.47;;;23.00;31.20;;;;;;5029785;28;20264;-63
2021/04/23 04:20:37;;;;;;;1.83;1.50;;;23.00;31.40;;;;;;5028914;28;20225;-63
2021/04/23 04:23:03;;;;;;;1.47;1.30;;;23.10;31.40;;;;;;5030436;28;20287;-64
2021/04/23 04:25:29;;;;;;;2.00;1.52;;;23.00;31.30;;;;;;5029915;28;20205;-62
2021/04/23 04:27:55;;;;;;;1.90;1.20;;;23.00;31.10;;;;;;5029812;28;20194;-62
2021/04/23 04:30:21;;;;;;;2.50;1.33;;;23.00;31.20;;;;;;5029482;28;20246;-64
2021/04/23 04:32:47;;;;;;;1.47;1.37;;;23.00;31.30;;;;;;5030333;28;20729;-65
2021/04/23 04:35:13;;;;;;;2.00;1.50;;;23.00;31.20;;;;;;5029345;28;20202;-65
2021/04/23 04:37:39;;;;;;;1.67;1.40;;;23.00;31.30;;;;;;5013693;28;20217;-66
2021/04/23 04:40:05;;;;;;;1.40;1.30;;;23.00;31.40;;;;;;5029025;28;20225;-65
2021/04/23 04:42:31;;;;;;;1.75;1.40;;;23.00;31.20;;;;;;5030814;28;20271;-66
2021/04/23 04:45:01;;;;;;;1.93;1.50;;;23.00;31.20;;;;;;5029896;28;20217;-66
2021/04/23 04:47:27;;;;;;;1.57;1.47;;;23.00;31.10;;;;;;5029663;28;20210;-66
2021/04/23 04:49:53;;;;;;;2.90;1.57;;;23.10;31.30;;;;;;5029334;28;20214;-66
2021/04/23 04:52:18;;;;;;;2.38;1.20;;;23.00;31.30;;;;;;5029063;28;20705;-64
2021/04/23 04:54:44;;;;;;;1.20;1.10;;;23.00;31.20;;;;;;5029721;28;20264;-63
2021/04/23 04:57:10;;;;;;;1.73;1.63;;;23.00;31.10;;;;;;5029705;28;20206;-63
2021/04/23 04:59:36;;;;;;;1.45;1.20;;;23.10;31.30;;;;;;5028806;28;20306;-64
2021/04/23 05:02:02;;;;;;;1.23;1.13;;;23.00;30.90;;;;;;5028828;28;20225;-64
2021/04/23 05:04:28;;;;;;;2.05;1.25;;;23.00;31.00;;;;;;5029328;28;20268;-64
2021/04/23 05:06:54;;;;;;;1.80;1.40;;;23.00;30.90;;;;;;5028016;28;20198;-64
2021/04/23 05:09:20;;;;;;;2.60;1.30;;;23.00;30.90;;;;;;5011357;28;20611;-63
2021/04/23 05:11:46;;;;;;;2.17;1.05;;;23.00;30.90;;;;;;5028578;28;20222;-63
2021/04/23 05:14:12;;;;;;;2.00;1.50;;;23.00;30.90;;;;;;5030069;28;20206;-64
2021/04/23 05:16:38;;;;;;;1.75;1.40;;;23.00;30.80;;;;;;5027975;28;20203;-64
2021/04/23 05:19:04;;;;;;;1.55;1.40;;;23.00;30.90;;;;;;5029823;28;20225;-63
2021/04/23 05:21:31;;;;;;;2.10;1.20;;;23.10;31.10;;;;;;5028620;28;20238;-64
2021/04/23 05:23:57;;;;;;;2.03;1.30;;;23.00;30.90;;;;;;5029197;28;20199;-61
2021/04/23 05:26:23;;;;;;;1.27;1.17;;;23.10;31.30;;;;;;5029891;28;20202;-61
2021/04/23 05:28:49;;;;;;;1.45;1.15;;;23.00;31.00;;;;;;5028514;28;20198;-61
2021/04/23 05:31:15;;;;;;;1.40;1.20;;;23.00;31.00;;;;;;5030032;28;20261;-61
2021/04/23 05:33:41;;;;;;;2.63;1.30;;;23.00;31.10;;;;;;5028712;28;20646;-63
2021/04/23 05:36:07;;;;;;;1.48;1.10;;;23.00;31.30;;;;;;5029565;28;20201;-64
2021/04/23 05:38:33;;;;;;;3.10;1.27;;;23.00;31.10;;;;;;5025235;28;20670;-63
2021/04/23 05:40:59;;;;;;;4.28;1.50;;;23.10;31.30;;;;;;5027751;28;20214;-58
2021/04/23 05:43:25;;;;;;;2.78;1.70;;;23.00;31.60;;;;;;5029309;28;20206;-66
2021/04/23 05:45:51;;;;;;;5.00;2.03;;;23.00;32.30;;;;;;5031710;28;20538;-66
2021/04/23 05:48:17;;;;;;;3.20;1.50;;;23.10;32.40;;;;;;5032549;28;20215;-67
2021/04/23 05:50:43;;;;;;;9.73;4.65;;;23.10;32.40;;;;;;5032848;28;20205;-66
2021/04/23 05:53:09;;;;;;;7.27;4.50;;;22.10;23.40;;;;;;5026687;28;20240;-66
2021/04/23 05:55:35;;;;;;;8.53;4.90;;;20.30;22.00;;;;;;5029941;28;20206;-63
2021/04/23 05:58:01;;;;;;;6.03;4.60;;;19.10;21.30;;;;;;5013563;28;20228;-65
2021/04/23 06:00:27;;;;;;;5.57;4.73;;;17.80;21.80;;;;;;5023379;28;21003;-63
2021/04/23 06:02:53;;;;;;;7.23;4.37;;;18.80;23.30;;;;;;5032020;28;20245;-64
2021/04/23 06:05:19;;;;;;;5.27;3.20;;;20.10;23.90;;;;;;5031410;28;20205;-63
2021/04/23 06:07:45;;;;;;;5.03;2.73;;;21.00;25.00;;;;;;5032374;28;20204;-61
2021/04/23 06:10:11;;;;;;;3.37;2.30;;;21.50;25.10;;;;;;5030543;28;20809;-64
2021/04/23 06:12:37;;;;;;;3.37;2.87;;;21.90;25.30;;;;;;5032160;28;20222;-64
2021/04/23 06:15:03;;;;;;;4.33;2.50;;;22.00;25.50;;;;;;5032076;28;20718;-64
2021/04/23 06:17:29;;;;;;;4.23;2.67;;;22.20;25.80;;;;;;5031977;28;20199;-64
2021/04/23 06:19:55;;;;;;;2.20;2.00;;;22.30;26.20;;;;;;5031920;28;20684;-64
2021/04/23 06:22:20;;;;;;;3.47;2.17;;;22.40;26.40;;;;;;5018997;28;20267;-64
2021/04/23 06:24:46;;;;;;;3.83;2.30;;;22.50;26.70;;;;;;5026359;28;20201;-65
2021/04/23 06:27:12;;;;;;;4.67;2.40;;;22.50;26.90;;;;;;5028842;28;20207;-64
2021/04/23 06:29:38;;;;;;;4.23;1.80;;;22.60;27.10;;;;;;5027230;28;20242;-63
2021/04/23 06:32:04;;;;;;;3.53;2.30;;;22.70;27.40;;;;;;5032615;28;20232;-65
2021/04/23 06:34:30;;;;;;;3.73;2.20;;;22.70;27.50;;;;;;5019363;28;20212;-64
2021/04/23 06:36:56;;;;;;;3.33;2.10;;;22.70;27.80;;;;;;5030482;28;20248;-64
2021/04/23 06:39:22;;;;;;;3.00;2.10;;;22.70;27.80;;;;;;5022916;28;20237;-66
2021/04/23 06:41:48;;;;;;;2.90;2.17;;;22.80;27.90;;;;;;5029659;28;20799;-64
2021/04/23 06:44:14;;;;;;;2.67;1.77;;;22.80;27.90;;;;;;5030979;28;20263;-65
2021/04/23 06:46:40;;;;;;;4.03;1.70;;;22.80;27.90;;;;;;5015973;28;20721;-62
2021/04/23 06:49:06;;;;;;;1.90;1.70;;;22.90;28.00;;;;;;5035935;28;20217;-64
2021/04/23 06:51:32;;;;;;;2.13;1.83;;;23.00;28.30;;;;;;5030697;28;20614;-65
2021/04/23 06:53:58;;;;;;;3.03;1.80;;;22.90;28.30;;;;;;5041012;28;20289;-64
2021/04/23 06:56:24;;;;;;;2.23;2.03;;;22.90;28.30;;;;;;5029516;28;20205;-65
2021/04/23 06:58:50;;;;;;;3.22;1.73;;;22.90;28.30;;;;;;5026696;28;20343;-65
2021/04/23 07:01:16;;;;;;;2.87;1.93;;;22.90;28.50;;;;;;5029986;28;20221;-64
2021/04/23 07:03:42;;;;;;;1.90;1.70;;;22.90;28.50;;;;;;5029760;28;20225;-52
2021/04/23 07:06:08;;;;;;;8.50;6.03;;;22.90;28.70;;;;;;5031547;28;20206;-54
2021/04/23 07:08:34;;;;;;;2.53;1.50;;;23.00;28.80;;;;;;5030664;28;20210;-52
2021/04/23 07:11:00;;;;;;;2.00;1.80;;;22.90;28.80;;;;;;5031059;28;20221;-53
2021/04/23 07:13:26;;;;;;;2.23;1.60;;;22.90;28.60;;;;;;5027471;28;20664;-49
2021/04/23 07:15:52;;;;;;;2.90;1.70;;;22.90;28.50;;;;;;5026831;28;20198;-68
2021/04/23 07:18:18;;;;;;;2.53;1.63;;;23.00;29.00;;;;;;5030678;28;20209;-71
2021/04/23 07:20:44;;;;;;;2.60;1.87;;;23.00;28.90;;;;;;5029575;28;20276;-65
2021/04/23 07:23:10;;;;;;;2.83;2.03;;;23.00;29.40;;;;;;5027734;28;20676;-61
2021/04/23 07:25:36;;;;;;;2.93;2.07;;;23.00;30.00;;;;;;5038053;28;20216;-69
2021/04/23 07:28:02;;;;;;;2.58;2.08;;;23.20;30.00;;;;;;5032403;28;20222;-61
2021/04/23 07:30:29;;;;;;;3.00;1.98;;;23.20;30.20;;;;;;5031307;28;20261;-60
2021/04/23 07:32:55;;;;;;;4.30;1.80;;;23.10;30.60;;;;;;5030889;28;20313;-59
2021/04/23 07:35:21;;;;;;;3.07;1.83;;;23.10;30.80;;;;;;5019578;28;20210;-63
2021/04/23 07:37:47;;;;;;;3.08;2.00;;;23.10;30.40;;;;;;5030634;28;20229;-59
2021/04/23 07:40:13;;;;;;;1.52;1.42;;;23.20;30.70;;;;;;5029990;28;20226;-62
2021/04/23 07:42:39;;;;;;;2.63;1.70;;;23.20;30.70;;;;;;5030575;28;20260;-56
2021/04/23 07:45:05;;;;;;;4.80;2.10;;;23.10;30.10;;;;;;5031179;28;20650;-61
2021/04/23 07:47:31;;;;;;;3.50;1.80;;;23.10;30.10;;;;;;5033924;28;20218;-59
2021/04/23 07:49:57;;;;;;;3.33;1.90;;;23.10;30.10;;;;;;5027166;28;20203;-60
2021/04/23 07:52:23;;;;;;;3.05;1.90;;;23.10;30.30;;;;;;5025321;28;20222;-57
2021/04/23 07:54:49;;;;;;;2.65;1.58;;;23.10;30.30;;;;;;5028866;28;20620;-60
2021/04/23 07:57:14;;;;;;;3.07;2.03;;;23.10;30.20;;;;;;5029432;28;20198;-55
2021/04/23 07:59:40;;;;;;;6.78;2.00;;;23.10;30.50;;;;;;5030130;28;20750;-63
2021/04/23 08:02:07;;;;;;;4.05;1.58;;;23.20;30.60;;;;;;5029058;28;20219;-63
2021/04/23 08:04:34;;;;;;;3.78;2.00;;;23.20;30.70;;;;;;5031693;28;20233;-63
2021/04/23 08:07:00;;;;;;;2.33;1.90;;;23.20;30.50;;;;;;5029683;28;20221;-64
2021/04/23 08:09:26;;;;;;;5.45;1.95;;;23.20;30.50;;;;;;5031005;28;20209;-64
2021/04/23 08:11:52;;;;;;;6.00;2.28;;;23.20;30.50;;;;;;5031441;28;20226;-63
2021/04/23 08:14:18;;;;;;;2.78;2.10;;;23.20;30.50;;;;;;5031663;28;20659;-64
2021/04/23 08:16:44;;;;;;;6.22;1.70;;;23.20;30.40;;;;;;5030442;28;20198;-63
2021/04/23 08:19:10;;;;;;;5.13;2.30;;;23.20;30.30;;;;;;5030216;28;20226;-64
2021/04/23 08:21:36;;;;;;;4.00;1.50;;;23.20;30.40;;;;;;5030525;28;20223;-63
2021/04/23 08:24:02;;;;;;;5.25;1.88;;;23.20;30.40;;;;;;5021243;28;20565;-64
2021/04/23 08:26:28;;;;;;;5.67;2.43;;;23.20;30.50;;;;;;5030739;28;20252;-63
2021/04/23 08:28:54;;;;;;;5.47;1.92;;;23.20;30.50;;;;;;5030726;28;20604;-64
2021/04/23 08:31:21;;;;;;;3.28;2.00;;;23.20;30.60;;;;;;5030888;28;20229;-63
2021/04/23 08:33:47;;;;;;;6.07;2.25;;;23.20;30.40;;;;;;5031152;28;20567;-64
2021/04/23 08:36:13;;;;;;;6.40;2.53;;;23.20;30.40;;;;;;5031076;28;20210;-63
2021/04/23 08:38:39;;;;;;;3.10;1.73;;;23.20;30.30;;;;;;5030494;28;20519;-63
2021/04/23 08:41:05;;;;;;;2.90;2.00;;;23.20;30.20;;;;;;5030805;28;20233;-63
2021/04/23 08:43:31;;;;;;;4.00;1.75;;;23.20;30.20;;;;;;5031203;28;20210;-64
2021/04/23 08:45:57;;;;;;;4.03;1.73;;;23.20;30.20;;;;;;5030602;28;20198;-63
2021/04/23 08:48:23;;;;;;;3.75;2.30;;;23.20;30.20;;;;;;5030181;28;20210;-64
2021/04/23 08:50:49;;;;;;;2.67;1.80;;;23.20;30.20;;;;;;5030806;28;20222;-64
2021/04/23 08:53:15;;;;;;;4.15;1.85;;;23.20;30.20;;;;;;5030150;28;20199;-64
2021/04/23 08:55:41;;;;;;;4.57;1.95;;;23.20;30.20;;;;;;5030399;28;20206;-63
2021/04/23 08:58:07;;;;;;;1.85;1.60;;;23.20;30.20;;;;;;5029908;28;20575;-64
2021/04/23 09:00:33;;;;;;;2.08;1.55;;;23.20;30.10;;;;;;5030310;28;20238;-63
2021/04/23 09:02:59;;;;;;;2.55;2.15;;;23.10;30.00;;;;;;5031028;28;20569;-64
2021/04/23 09:05:25;;;;;;;4.18;1.92;;;23.20;30.00;;;;;;5030571;28;20194;-64
2021/04/23 09:07:51;;;;;;;2.30;1.63;;;23.10;30.00;;;;;;5030278;28;20562;-64
2021/04/23 09:10:17;;;;;;;4.00;1.80;;;23.20;30.00;;;;;;5030265;28;20198;-64
2021/04/23 09:12:43;;;;;;;2.83;1.83;;;23.20;30.00;;;;;;5030509;28;20198;-64
2021/04/23 09:15:09;;;;;;;3.78;1.85;;;23.20;30.10;;;;;;5030557;28;20205;-64
2021/04/23 09:17:35;;;;;;;2.42;1.55;;;23.10;30.00;;;;;;5030120;28;20206;-63
2021/04/23 09:20:01;;;;;;;4.05;1.98;;;23.20;30.00;;;;;;5034530;28;20244;-63
2021/04/23 09:22:27;;;;;;;2.08;1.67;;;23.20;30.00;;;;;;5034541;28;20219;-63
2021/04/23 09:24:53;;;;;;;3.47;1.88;;;23.20;30.00;;;;;;5034240;28;20206;-64
2021/04/23 09:27:19;;;;;;;2.30;1.55;;;23.20;30.00;;;;;;5034048;28;20221;-63
2021/04/23 09:29:45;;;;;;;3.65;1.92;;;23.20;30.00;;;;;;5034241;28;20210;-63
2021/04/23 09:32:11;;;;;;;1.70;1.60;;;23.20;30.00;;;;;;5034300;28;20734;-63
2021/04/23 09:34:37;;;;;;;2.03;1.80;;;23.30;30.00;;;;;;5034519;28;20218;-63
2021/04/23 09:37:03;;;;;;;2.70;1.80;;;23.30;29.90;;;;;;5033509;28;20535;-63
2021/04/23 09:39:29;;;;;;;2.97;1.90;;;23.30;29.90;;;;;;5033719;28;20229;-63
2021/04/23 09:41:55;;;;;;;3.50;1.90;;;23.30;29.90;;;;;;5025660;28;20226;-59
2021/04/23 09:44:21;;;;;;;3.33;1.98;;;23.30;30.00;;;;;;5030844;28;20210;-65
2021/04/23 09:46:47;;;;;;;2.33;1.80;;;23.30;30.30;;;;;;5031384;28;20590;-64
2021/04/23 09:49:13;;;;;;;6.95;2.92;;;23.30;30.80;;;;;;5030807;28;20207;-66
2021/04/23 09:51:39;;;;;;;4.22;2.03;;;23.30;30.60;;;;;;5037359;28;20621;-66
2021/04/23 09:54:05;;;;;;;4.75;2.55;;;23.30;29.60;;;;;;5034510;28;20203;-66
2021/04/23 09:56:31;;;;;;;3.40;2.28;;;23.20;27.70;;;;;;5031632;28;20555;-66
2021/04/23 09:58:57;;;;;;;6.77;2.83;;;23.10;26.00;;;;;;5022215;28;20199;-65
2021/04/23 10:01:23;;;;;;;6.82;3.00;;;23.00;24.20;;;;;;5028124;28;20644;-65
2021/04/23 10:03:49;;;;;;;6.93;2.70;;;22.90;23.40;;;;;;5032832;28;20203;-65
2021/04/23 10:06:15;;;;;;;4.57;2.05;;;22.90;23.00;;;;;;5031362;28;20663;-65
2021/04/23 10:08:40;;;;;;;4.20;2.17;;;23.00;25.30;;;;;;5031721;28;20213;-64
2021/04/23 10:11:06;;;;;;;4.85;2.10;;;23.10;25.70;;;;;;5033110;28;20226;-64
2021/04/23 10:13:32;;;;;;;4.82;2.10;;;23.10;26.10;;;;;;5029926;28;20252;-63
2021/04/23 10:15:58;;;;;;;3.88;2.20;;;23.10;27.30;;;;;;5028592;28;20214;-65
2021/04/23 10:18:24;;;;;;;3.58;1.85;;;23.20;27.30;;;;;;5031089;28;20214;-62
2021/04/23 10:20:50;;;;;;;4.45;2.13;;;23.20;27.80;;;;;;5032635;28;20258;-61
2021/04/23 10:23:16;;;;;;;5.18;2.55;;;23.20;28.40;;;;;;5030127;28;20226;-62
2021/04/23 10:25:42;;;;;;;4.40;2.20;;;23.20;28.40;;;;;;5031846;28;20750;-62
2021/04/23 10:28:09;;;;;;;5.55;2.38;;;23.20;28.20;;;;;;5027625;28;20202;-67
2021/04/23 10:30:35;;;;;;;7.00;2.80;;;23.20;28.20;;;;;;5023707;28;20276;-66
2021/04/23 10:33:01;;;;;;;5.20;3.05;;;23.10;26.80;;;;;;5031387;28;20476;-67
2021/04/23 10:35:27;;;;;;;4.18;2.90;;;23.00;24.60;;;;;;5032093;28;20206;-66
2021/04/23 10:37:53;;;;;;;5.17;3.20;;;22.90;23.10;;;;;;5021279;28;20195;-67
2021/04/23 10:40:19;;;;;;;8.10;3.50;;;22.90;24.10;;;;;;5028700;28;20280;-66
2021/04/23 10:42:46;;;;;;;7.15;2.72;;;22.90;24.10;;;;;;5032447;28;20206;-67
2021/04/23 10:45:12;;;;;;;4.50;2.50;;;22.90;24.70;;;;;;5029217;28;20203;-67
2021/04/23 10:47:38;;;;;;;5.30;2.88;;;23.00;25.20;;;;;;5030222;28;20207;-66
2021/04/23 10:50:04;;;;;;;4.93;2.40;;;23.00;25.20;;;;;;5032059;28;20222;-66
2021/04/23 10:52:30;;;;;;;5.43;2.20;;;23.00;25.80;;;;;;5030107;28;20203;-66
2021/04/23 10:54:56;;;;;;;5.70;2.75;;;23.00;26.10;;;;;;5031188;28;20210;-66
2021/04/23 10:57:22;;;;;;;4.85;2.50;;;23.10;26.60;;;;;;5031866;28;20590;-66
2021/04/23 10:59:48;;;;;;;6.22;2.63;;;23.10;26.90;;;;;;5031516;28;20245;-67
2021/04/23 11:02:14;;;;;;;3.80;2.20;;;23.10;27.50;;;;;;5031904;28;20207;-67
2021/04/23 11:04:40;;;;;;;4.53;2.40;;;23.10;27.50;;;;;;5031765;28;20202;-67
2021/04/23 11:07:06;;;;;;;5.15;2.30;;;23.20;27.90;;;;;;5031335;28;20569;-67
2021/04/23 11:09:32;;;;;;;5.07;2.47;;;23.20;27.80;;;;;;5023636;28;20240;-68
2021/04/23 11:11:58;;;;;;;5.35;2.22;;;23.30;27.90;;;;;;5031229;28;20203;-67
2021/04/23 11:14:24;;;;;;;6.07;2.50;;;23.30;28.20;;;;;;5032326;28;20205;-68
2021/04/23 11:16:50;;;;;;;4.15;2.20;;;23.30;28.30;;;;;;5030626;28;20670;-68
2021/04/23 11:19:16;;;;;;;4.05;2.10;;;23.30;28.20;;;;;;5031195;28;20213;-67
2021/04/23 11:21:42;;;;;;;3.33;1.80;;;23.30;28.20;;;;;;5031236;28;20214;-66
2021/04/23 11:24:08;;;;;;;5.68;2.33;;;23.30;28.30;;;;;;5030026;28;20663;-67
2021/04/23 11:26:34;;;;;;;3.90;2.00;;;23.40;28.30;;;;;;5029558;28;20198;-66
2021/04/23 11:29:00;;;;;;;6.72;2.70;;;23.40;28.30;;;;;;5029370;28;20600;-67
2021/04/23 11:31:26;;;;;;;11.70;8.40;;;23.50;28.40;;;;;;5028943;28;20226;-67
2021/04/23 11:33:52;;;;;;;37.10;31.33;;;23.40;28.30;;;;;;5031693;28;20203;-67
2021/04/23 11:36:18;;;;;;;41.15;35.65;;;23.30;28.30;;;;;;5031453;28;20199;-66
2021/04/23 11:38:44;;;;;;;47.70;40.05;;;23.30;28.60;;;;;;5029204;28;20225;-67
2021/04/23 11:41:10;;;;;;;48.22;39.33;;;23.40;28.50;;;;;;5026022;28;20238;-67
2021/04/23 11:43:37;;;;;;;46.67;41.63;;;23.50;28.40;;;;;;5030419;28;20246;-67
2021/04/23 11:46:03;;;;;;;48.97;42.42;;;23.50;28.40;;;;;;5030074;28;20199;-67
2021/04/23 11:48:29;;;;;;;48.38;42.80;;;23.50;28.50;;;;;;5029396;28;20213;-66
2021/04/23 11:50:55;;;;;;;58.47;45.33;;;23.50;28.80;;;;;;5029528;28;20718;-67
2021/04/23 11:53:27;;;;;;;50.00;44.67;;;23.60;29.00;;;;;;5031357;28;20198;-64
2021/04/23 11:55:54;;;;;;;54.85;46.20;;;23.50;29.10;;;;;;5024098;28;20313;-66
2021/04/23 11:58:21;;;;;;;49.67;44.28;;;23.50;29.10;;;;;;5030475;28;20282;-67
2021/04/23 12:00:47;;;;;;;49.03;43.78;;;23.50;29.20;;;;;;5030415;28;20237;-66
2021/04/23 12:03:13;;;;;;;50.50;43.45;;;23.50;29.50;;;;;;5030382;28;20648;-65
2021/04/23 12:05:39;;;;;;;49.78;43.38;;;23.50;29.50;;;;;;5031606;28;20206;-66
2021/04/23 12:08:05;;;;;;;46.00;41.13;;;23.50;29.60;;;;;;5030765;28;20199;-66
2021/04/23 12:10:31;;;;;;;47.00;41.97;;;23.50;29.60;;;;;;5030975;28;20461;-66
2021/04/23 12:12:57;;;;;;;46.35;41.25;;;23.50;29.60;;;;;;5030769;28;20206;-66
2021/04/23 12:15:23;;;;;;;47.03;40.70;;;23.40;29.60;;;;;;5031017;28;20202;-66
2021/04/23 12:17:52;;;;;;;48.47;40.17;;;23.40;29.70;;;;;;5030103;28;20210;-67
2021/04/23 12:20:18;;;;;;;46.85;41.50;;;23.40;29.80;;;;;;5029319;28;20257;-66
2021/04/23 12:22:44;;;;;;;42.92;38.60;;;23.40;29.90;;;;;;5029118;28;20207;-66
2021/04/23 12:25:10;;;;;;;43.55;38.88;;;23.40;30.00;;;;;;5030838;28;20217;-67
2021/04/23 12:27:36;;;;;;;44.72;39.85;;;23.40;30.00;;;;;;5028866;28;20207;-65
2021/04/23 12:30:03;;;;;;;26.67;21.77;;;23.40;29.80;;;;;;5028594;28;20230;-66
2021/04/23 12:32:29;;;;;;;16.40;14.68;;;23.20;25.70;;;;;;5020134;28;20260;-65
2021/04/23 12:34:55;;;;;;;16.75;12.85;;;23.00;23.40;;;;;;5030369;28;20214;-65
2021/04/23 12:37:23;;;;;;;14.85;11.68;;;22.80;22.30;;;;;;5029977;28;20198;-65